Tachek — VXRQ — position and weather

sailwx.info

Track history (hours):
 
Tides and Currents Weather Stations Pressure Air Temp Water Temp Dewpoint Dewpoint Depression Visibility Wind Speed Wind Dir Waves Ship Positions

Tachek

Last reported at 2017-Dec-11 17:01 UTC. Time now 2017-Dec-12 15:50 UTC.
Position N 50°06' W 125°13'.

Length 50 m; draft 2.6 m.

Type: Ship. MMSI: 316001271.

Date/timePositionNaut miles runAvg speedWind from/ knotsBaromVisibWave heightAir tempDewpointWater temp
2017-Dec-11 17:01N 50°06' W 125°13'0 0.0
2017-Dec-11 16:31N 50°06' W 125°13'5 9.8
2017-Dec-11 16:00N 50°06' W 125°05'1 2.3
2017-Dec-11 15:31N 50°07' W 125°03'0 0.0
2017-Dec-11 15:00N 50°07' W 125°03'0 0.0
2017-Dec-11 14:31N 50°07' W 125°03'0 0.0
2017-Dec-11 14:01N 50°07' W 125°03'0 0.0
2017-Dec-11 13:31N 50°07' W 125°03'0 0.0
2017-Dec-11 13:01N 50°07' W 125°03'0 0.0
2017-Dec-11 12:31N 50°07' W 125°03'0 0.0
2017-Dec-11 12:01N 50°07' W 125°03'0 0.0
2017-Dec-11 11:31N 50°07' W 125°03'0 0.0
2017-Dec-11 11:01N 50°07' W 125°03'0 0.0
2017-Dec-11 10:31N 50°07' W 125°03'0 0.0
2017-Dec-11 10:01N 50°07' W 125°03'0 0.0
2017-Dec-11 09:31N 50°07' W 125°03'0 0.0
2017-Dec-11 09:01N 50°07' W 125°03'0 0.0
2017-Dec-11 08:31N 50°07' W 125°03'0 0.0
2017-Dec-11 08:01N 50°07' W 125°03'0 0.0
2017-Dec-11 07:31N 50°07' W 125°03'0 0.0
2017-Dec-11 07:01N 50°07' W 125°03'0 0.0
2017-Dec-11 06:30N 50°07' W 125°03'0 0.0
2017-Dec-11 06:01N 50°07' W 125°03'0 0.0
2017-Dec-11 05:31N 50°07' W 125°03'0 0.0
2017-Dec-11 05:01N 50°07' W 125°03'0 0.0
2017-Dec-11 04:31N 50°07' W 125°03'0 0.0
2017-Dec-11 04:01N 50°07' W 125°03'0 0.0
2017-Dec-11 03:30N 50°07' W 125°03'4 8.2
2017-Dec-11 03:00N 50°07' W 125°10'2 4.0
2017-Dec-11 02:31N 50°06' W 125°13'5 9.4
2017-Dec-11 02:01N 50°06' W 125°05'0 0.5
2017-Dec-11 01:31N 50°06' W 125°06'4 8.9
2017-Dec-11 01:01N 50°06' W 125°13'0 0.0
2017-Dec-11 00:31N 50°06' W 125°13'510.6
2017-Dec-11 00:01N 50°06' W 125°04'1 2.5
2017-Dec-10 23:31N 50°06' W 125°06'4 8.1
2017-Dec-10 23:01N 50°06' W 125°13'0 0.0
2017-Dec-10 22:31N 50°06' W 125°13'5 9.1
2017-Dec-10 22:01N 50°06' W 125°06'0 0.3
2017-Dec-10 21:31N 50°06' W 125°06'4 8.9
2017-Dec-10 21:01N 50°06' W 125°13'0 0.0
2017-Dec-10 20:31N 50°06' W 125°13'3 6.0
2017-Dec-10 20:01N 50°07' W 125°08'3 5.4
2017-Dec-10 19:31N 50°06' W 125°04'611.1
2017-Dec-10 19:01N 50°06' W 125°13'0 0.4
2017-Dec-10 18:31N 50°06' W 125°13'2 3.2
2017-Dec-10 18:00N 50°07' W 125°10'5 9.1
2017-Dec-10 17:31N 50°07' W 125°03'0 0.0
2017-Dec-10 17:00N 50°07' W 125°03'0 0.0
2017-Dec-10 16:30N 50°07' W 125°03'0 0.0
2017-Dec-10 16:00N 50°07' W 125°03'0 0.0
2017-Dec-10 15:30N 50°07' W 125°03'0 0.0
2017-Dec-10 15:01N 50°07' W 125°03'0 0.0
2017-Dec-10 14:31N 50°07' W 125°03'0 0.0
2017-Dec-10 14:01N 50°07' W 125°03'0 0.0
2017-Dec-10 13:31N 50°07' W 125°03'0 0.0
2017-Dec-10 13:00N 50°07' W 125°03'0 0.0
2017-Dec-10 12:30N 50°07' W 125°03'0 0.0
2017-Dec-10 12:01N 50°07' W 125°03'0 0.0
2017-Dec-10 11:31N 50°07' W 125°03'0 0.0
2017-Dec-10 11:01N 50°07' W 125°03'0 0.0
2017-Dec-10 10:30N 50°07' W 125°03'0 0.0
2017-Dec-10 10:01N 50°07' W 125°03'0 0.0
2017-Dec-10 09:30N 50°07' W 125°03'0 0.0
2017-Dec-10 09:01N 50°07' W 125°03'0 0.0
2017-Dec-10 08:31N 50°07' W 125°03'0 0.0
2017-Dec-10 08:01N 50°07' W 125°03'0 0.0
2017-Dec-10 07:31N 50°07' W 125°03'0 0.0
2017-Dec-10 07:01N 50°07' W 125°03'0 0.0
2017-Dec-10 06:31N 50°07' W 125°03'0 0.0
2017-Dec-10 06:00N 50°07' W 125°03'0 0.0
2017-Dec-10 05:31N 50°07' W 125°03'0 0.0
2017-Dec-10 05:01N 50°07' W 125°03'0 0.0
2017-Dec-10 04:31N 50°07' W 125°03'0 0.0
2017-Dec-10 04:01N 50°07' W 125°03'0 0.0
2017-Dec-10 03:30N 50°07' W 125°03'4 8.5
2017-Dec-10 03:01N 50°07' W 125°10'2 3.7
2017-Dec-10 02:31N 50°06' W 125°13'5 9.9
2017-Dec-10 02:01N 50°06' W 125°05'2 3.0
2017-Dec-10 01:30N 50°06' W 125°07'3 7.0
2017-Dec-10 01:01N 50°06' W 125°13'0 0.0
2017-Dec-10 00:31N 50°06' W 125°13'510.6
2017-Dec-10 00:00N 50°06' W 125°04'2 3.4
2017-Dec-09 23:30N 50°06' W 125°07'4 7.3
2017-Dec-09 23:01N 50°06' W 125°13'0 0.0
2017-Dec-09 22:31N 50°06' W 125°13'5 9.2
2017-Dec-09 22:01N 50°06' W 125°06'1 1.2
2017-Dec-09 21:30N 50°06' W 125°06'4 7.9
2017-Dec-09 21:00N 50°06' W 125°13'0 0.0
2017-Dec-09 20:30N 50°06' W 125°13'2 4.4
2017-Dec-09 20:00N 50°07' W 125°09'4 7.9
2017-Dec-09 19:31N 50°07' W 125°03'510.7
2017-Dec-09 19:01N 50°07' W 125°12'1 1.6
2017-Dec-09 18:30N 50°06' W 125°13'3 5.2
2017-Dec-09 18:01N 50°07' W 125°09'3 6.9
2017-Dec-09 17:31N 50°06' W 125°03'611.0
2017-Dec-09 17:01N 50°07' W 125°12'1 1.3
2017-Dec-09 16:31N 50°06' W 125°13'5 9.5
2017-Dec-09 16:00N 50°06' W 125°05'1 2.6
2017-Dec-09 15:30N 50°07' W 125°03'0 0.0
2017-Dec-09 15:01N 50°07' W 125°03'0 0.0
2017-Dec-09 14:31N 50°07' W 125°03'0 0.0
2017-Dec-09 14:01N 50°07' W 125°03'0 0.0
2017-Dec-09 13:31N 50°07' W 125°03'0 0.0
2017-Dec-09 13:00N 50°07' W 125°03'0 0.0
2017-Dec-09 12:30N 50°07' W 125°03'0 0.0
2017-Dec-09 12:00N 50°07' W 125°03'0 0.0
2017-Dec-09 11:30N 50°07' W 125°03'0 0.0
2017-Dec-09 11:01N 50°07' W 125°03'0 0.0
2017-Dec-09 10:31N 50°07' W 125°03'0 0.0
2017-Dec-09 10:01N 50°07' W 125°03'0 0.0
2017-Dec-09 09:31N 50°07' W 125°03'0 0.0
2017-Dec-09 09:01N 50°07' W 125°03'0 0.0
2017-Dec-09 08:30N 50°07' W 125°03'0 0.0
2017-Dec-09 08:01N 50°07' W 125°03'0 0.0
2017-Dec-09 07:30N 50°07' W 125°03'0 0.0
2017-Dec-09 07:00N 50°07' W 125°03'0 0.0
2017-Dec-09 06:31N 50°07' W 125°03'0 0.0
2017-Dec-09 06:01N 50°07' W 125°03'0 0.0
2017-Dec-09 05:31N 50°07' W 125°03'0 0.0
2017-Dec-09 05:01N 50°07' W 125°03'0 0.0
2017-Dec-09 04:31N 50°07' W 125°03'0 0.0
2017-Dec-09 04:00N 50°07' W 125°03'0 0.0
2017-Dec-09 03:31N 50°07' W 125°03'5 9.7
2017-Dec-09 03:00N 50°07' W 125°11'1 1.9
2017-Dec-09 02:31N 50°07' W 125°12'611.5
2017-Dec-09 02:01N 50°06' W 125°03'3 6.5
2017-Dec-09 01:30N 50°06' W 125°08'3 5.5
2017-Dec-09 01:01N 50°06' W 125°13'0 0.1
2017-Dec-09 00:30N 50°06' W 125°13'510.5
2017-Dec-09 00:01N 50°06' W 125°05'2 3.0
2017-Dec-08 23:31N 50°06' W 125°07'4 7.4
2017-Dec-08 23:00N 50°06' W 125°13'0 0.0
2017-Dec-08 22:30N 50°06' W 125°13'5 9.9
2017-Dec-08 22:01N 50°06' W 125°05'1 1.7
2017-Dec-08 21:31N 50°06' W 125°06'4 7.5
2017-Dec-08 20:58N 50°06' W 125°13'0 0.0
2017-Dec-08 20:30N 50°06' W 125°13'5 9.7
2017-Dec-08 20:00N 50°06' W 125°05'1 2.0
2017-Dec-08 19:31N 50°07' W 125°07'4 7.7
2017-Dec-08 19:00N 50°06' W 125°13'0 0.7
2017-Dec-08 18:31N 50°07' W 125°12'611.5
2017-Dec-08 18:01N 50°06' W 125°03'2 4.8
2017-Dec-08 17:31N 50°06' W 125°07'4 7.1
2017-Dec-08 17:01N 50°06' W 125°13'0 0.2
2017-Dec-08 16:31N 50°06' W 125°13'610.9
2017-Dec-08 16:00N 50°06' W 125°04'1 1.2
2017-Dec-08 15:30N 50°07' W 125°03'0 0.0
2017-Dec-08 15:00N 50°07' W 125°03'0 0.0
2017-Dec-08 14:30N 50°07' W 125°03'0 0.0
2017-Dec-08 14:00N 50°07' W 125°03'0 0.0
2017-Dec-08 13:30N 50°07' W 125°03'0 0.0
2017-Dec-08 13:00N 50°07' W 125°03'0 0.0
2017-Dec-08 12:30N 50°07' W 125°03'0 0.0
2017-Dec-08 12:00N 50°07' W 125°03'0 0.0
2017-Dec-08 11:27N 50°07' W 125°03'0 0.0
2017-Dec-08 11:00N 50°07' W 125°03'0 0.0
2017-Dec-08 10:30N 50°07' W 125°03'0 0.0
2017-Dec-08 10:00N 50°07' W 125°03'0 0.0
2017-Dec-08 09:30N 50°07' W 125°03'0 0.0
2017-Dec-08 09:00N 50°07' W 125°03'0 0.0
2017-Dec-08 08:27N 50°07' W 125°03'0 0.0
2017-Dec-08 08:00N 50°07' W 125°03'0 0.0
2017-Dec-08 07:30N 50°07' W 125°03'0 0.0
2017-Dec-08 07:00N 50°07' W 125°03'0 0.0
2017-Dec-08 06:30N 50°07' W 125°03'0 0.0
2017-Dec-08 06:00N 50°07' W 125°03'0 0.0
2017-Dec-08 05:30N 50°07' W 125°03'0 0.0
2017-Dec-08 05:00N 50°07' W 125°03'0 0.0
2017-Dec-08 04:30N 50°07' W 125°03'0 0.0
2017-Dec-08 03:57N 50°07' W 125°03'0 0.0
2017-Dec-08 03:30N 50°07' W 125°03'4 7.8
2017-Dec-08 03:01N 50°07' W 125°09'2 4.4
2017-Dec-08 02:31N 50°06' W 125°13'510.3
2017-Dec-08 02:01N 50°06' W 125°05'1 2.8
2017-Dec-08 01:31N 50°06' W 125°07'4 7.5
2017-Dec-08 01:00N 50°06' W 125°13'0 0.8
2017-Dec-08 00:30N 50°07' W 125°12'611.6
2017-Dec-08 00:01N 50°06' W 125°03'3 5.1
2017-Dec-07 23:30N 50°06' W 125°07'3 6.9
2017-Dec-07 23:01N 50°06' W 125°13'0 0.0
2017-Dec-07 22:31N 50°06' W 125°13'5 9.1
2017-Dec-07 22:00N 50°06' W 125°06'1 1.0
2017-Dec-07 21:31N 50°06' W 125°06'4 8.2
2017-Dec-07 21:01N 50°06' W 125°13'3 6.0
2017-Dec-07 20:31N 50°07' W 125°08'3 6.1
2017-Dec-07 20:01N 50°07' W 125°03'5 9.9
2017-Dec-07 19:30N 50°07' W 125°11'1 2.3
2017-Dec-07 19:01N 50°06' W 125°13'0 0.0
2017-Dec-07 18:31N 50°06' W 125°13'510.5
2017-Dec-07 18:00N 50°06' W 125°04'2 3.4
2017-Dec-07 17:31N 50°06' W 125°07'4 7.1
2017-Dec-07 17:00N 50°06' W 125°13'4 8.5
2017-Dec-07 16:30N 50°06' W 125°06'2 3.6
2017-Dec-07 16:00N 50°07' W 125°03'0 0.0
2017-Dec-07 15:30N 50°07' W 125°03'0 0.0
2017-Dec-07 15:00N 50°07' W 125°03'0 0.0
2017-Dec-07 14:30N 50°07' W 125°03'0 0.0
2017-Dec-07 14:00N 50°07' W 125°03'0 0.0
2017-Dec-07 13:30N 50°07' W 125°03'0 0.0
2017-Dec-07 13:00N 50°07' W 125°03'0 0.0
2017-Dec-07 12:27N 50°07' W 125°03'0 0.0
2017-Dec-07 12:00N 50°07' W 125°03'0 0.0
2017-Dec-07 11:30N 50°07' W 125°03'0 0.0
2017-Dec-07 11:00N 50°07' W 125°03'0 0.0
2017-Dec-07 10:30N 50°07' W 125°03'0 0.0
2017-Dec-07 10:00N 50°07' W 125°03'0 0.0
2017-Dec-07 09:30N 50°07' W 125°03'0 0.0
2017-Dec-07 09:00N 50°07' W 125°03'0 0.0
2017-Dec-07 08:30N 50°07' W 125°03'0 0.0
2017-Dec-07 08:00N 50°07' W 125°03'0 0.0
2017-Dec-07 07:30N 50°07' W 125°03'0 0.0
2017-Dec-07 07:00N 50°07' W 125°03'0 0.0
2017-Dec-07 06:30N 50°07' W 125°03'0 0.0
2017-Dec-07 06:00N 50°07' W 125°03'0 0.0
2017-Dec-07 05:30N 50°07' W 125°03'0 0.0
2017-Dec-07 05:00N 50°07' W 125°03'0 0.0
2017-Dec-07 04:30N 50°07' W 125°03'0 0.0
2017-Dec-07 04:00N 50°07' W 125°03'0 0.0
2017-Dec-07 03:30N 50°07' W 125°03'4 8.2
2017-Dec-07 03:00N 50°07' W 125°10'2 3.8
2017-Dec-07 02:31N 50°06' W 125°13'611.2
2017-Dec-07 02:00N 50°06' W 125°04'2 3.2
2017-Dec-07 01:30N 50°06' W 125°06'4 8.1
2017-Dec-07 01:00N 50°06' W 125°13'0 0.4
2017-Dec-07 00:31N 50°06' W 125°13'611.1
2017-Dec-07 00:00N 50°06' W 125°04'2 3.7
2017-Dec-06 23:31N 50°06' W 125°07'4 7.4
2017-Dec-06 23:00N 50°06' W 125°13'0 0.0
2017-Dec-06 22:31N 50°06' W 125°13'510.5
2017-Dec-06 22:00N 50°06' W 125°04'2 3.7
2017-Dec-06 21:30N 50°06' W 125°07'3 6.9
2017-Dec-06 21:00N 50°06' W 125°13'  
2017-Dec-04 10:19N 50°07' W 125°03'0 0.0
2017-Dec-04 09:58N 50°07' W 125°03'0 0.0
2017-Dec-04 09:28N 50°07' W 125°03'0 0.0
2017-Dec-04 08:58N 50°07' W 125°03'0 0.0
2017-Dec-04 08:28N 50°07' W 125°03'0 0.0
2017-Dec-04 07:58N 50°07' W 125°03'0 0.0
2017-Dec-04 07:28N 50°07' W 125°03'0 0.0
2017-Dec-04 06:58N 50°07' W 125°03'0 0.0
2017-Dec-04 06:28N 50°07' W 125°03'0 0.0
2017-Dec-04 05:58N 50°07' W 125°03'0 0.0
2017-Dec-04 05:28N 50°07' W 125°03'0 0.0
2017-Dec-04 04:58N 50°07' W 125°03'0 0.0
2017-Dec-04 04:28N 50°07' W 125°03'0 0.0
2017-Dec-04 03:58N 50°07' W 125°03'0 0.0
2017-Dec-04 03:28N 50°07' W 125°03'4 7.6
2017-Dec-04 03:00N 50°06' W 125°09'3 5.1
2017-Dec-04 02:30N 50°06' W 125°13'4 8.7
2017-Dec-04 02:00N 50°06' W 125°06'0 0.4
2017-Dec-04 01:30N 50°06' W 125°06'4 8.6
2017-Dec-04 01:00N 50°06' W 125°13'0 0.0
2017-Dec-04 00:30N 50°06' W 125°13'510.0
2017-Dec-04 00:00N 50°06' W 125°05'1 3.0
2017-Dec-03 23:30N 50°07' W 125°07'4 7.4
2017-Dec-03 23:00N 50°06' W 125°13'0 0.5
2017-Dec-03 22:30N 50°06' W 125°12'611.9
2017-Dec-03 22:01N 50°07' W 125°03'2 3.9
2017-Dec-03 21:30N 50°06' W 125°06'4 8.2
2017-Dec-03 21:00N 50°06' W 125°13'0 0.0
2017-Dec-03 20:30N 50°06' W 125°13'1 2.4
2017-Dec-03 20:00N 50°07' W 125°11'5 9.8
2017-Dec-03 19:30N 50°07' W 125°03'5 9.2
2017-Dec-03 19:00N 50°06' W 125°10'1 3.0
2017-Dec-03 18:30N 50°06' W 125°13'1 2.6
2017-Dec-03 18:00N 50°07' W 125°11'5 9.6
2017-Dec-03 17:30N 50°07' W 125°03'0 0.0
2017-Dec-03 17:00N 50°07' W 125°03'0 0.0
2017-Dec-03 16:28N 50°07' W 125°03'0 0.0
2017-Dec-03 15:58N 50°07' W 125°03'0 0.0
2017-Dec-03 15:28N 50°07' W 125°03'0 0.0
2017-Dec-03 14:58N 50°07' W 125°03'0 0.0
2017-Dec-03 14:28N 50°07' W 125°03'0 0.0
2017-Dec-03 13:58N 50°07' W 125°03'0 0.0
2017-Dec-03 13:28N 50°07' W 125°03'0 0.0
2017-Dec-03 12:58N 50°07' W 125°03'0 0.0
2017-Dec-03 12:28N 50°07' W 125°03'0 0.0
2017-Dec-03 11:58N 50°07' W 125°03'0 0.0
2017-Dec-03 11:28N 50°07' W 125°03'0 0.0
2017-Dec-03 10:58N 50°07' W 125°03'0 0.0
2017-Dec-03 10:28N 50°07' W 125°03'0 0.0
2017-Dec-03 09:58N 50°07' W 125°03'0 0.0
2017-Dec-03 09:28N 50°07' W 125°03'0 0.0
2017-Dec-03 08:58N 50°07' W 125°03'0 0.0
2017-Dec-03 08:28N 50°07' W 125°03'0 0.0
2017-Dec-03 07:58N 50°07' W 125°03'0 0.0
2017-Dec-03 07:28N 50°07' W 125°03'0 0.0
2017-Dec-03 06:58N 50°07' W 125°03'0 0.0
2017-Dec-03 06:28N 50°07' W 125°03'0 0.0
2017-Dec-03 05:58N 50°07' W 125°03'0 0.0
2017-Dec-03 05:28N 50°07' W 125°03'0 0.0
2017-Dec-03 04:58N 50°07' W 125°03'0 0.0
2017-Dec-03 04:28N 50°07' W 125°03'0 0.0
2017-Dec-03 03:58N 50°07' W 125°03'0 0.0
2017-Dec-03 03:28N 50°07' W 125°03'4 8.2
2017-Dec-03 03:00N 50°07' W 125°09'2 4.7
2017-Dec-03 02:31N 50°06' W 125°13'5 9.8
2017-Dec-03 02:00N 50°06' W 125°05'1 2.3
2017-Dec-03 01:30N 50°06' W 125°07'4 7.5
2017-Dec-03 01:00N 50°06' W 125°13'0 0.0
2017-Dec-03 00:30N 50°06' W 125°13'4 7.9
2017-Dec-03 00:00N 50°06' W 125°07'1 1.4
2017-Dec-02 23:30N 50°06' W 125°05'5 9.2
2017-Dec-02 23:00N 50°06' W 125°13'0 0.0
2017-Dec-02 22:31N 50°06' W 125°13'5 9.8
2017-Dec-02 22:00N 50°06' W 125°05'1 2.6
2017-Dec-02 21:30N 50°06' W 125°07'4 7.3
2017-Dec-02 21:00N 50°06' W 125°13'0 0.0
2017-Dec-02 20:30N 50°06' W 125°13'2 3.1
2017-Dec-02 20:00N 50°07' W 125°10'5 9.1
2017-Dec-02 19:30N 50°07' W 125°03'5 9.0
2017-Dec-02 19:00N 50°06' W 125°10'2 3.1
2017-Dec-02 18:30N 50°06' W 125°13'2 5.0
2017-Dec-02 18:01N 50°07' W 125°09'4 7.1
2017-Dec-02 17:31N 50°07' W 125°03'510.7
2017-Dec-02 17:00N 50°07' W 125°12'1 1.6
2017-Dec-02 16:30N 50°06' W 125°13'4 8.9
2017-Dec-02 16:00N 50°06' W 125°06'2 3.2
2017-Dec-02 15:30N 50°07' W 125°03'0 0.0
2017-Dec-02 14:59N 50°07' W 125°03'0 0.0
2017-Dec-02 14:29N 50°07' W 125°03'0 0.0
2017-Dec-02 13:59N 50°07' W 125°03'0 0.0
2017-Dec-02 13:29N 50°07' W 125°03'0 0.0
2017-Dec-02 12:59N 50°07' W 125°03'0 0.0
2017-Dec-02 12:29N 50°07' W 125°03'0 0.0
2017-Dec-02 11:59N 50°07' W 125°03'0 0.0
2017-Dec-02 11:29N 50°07' W 125°03'0 0.0
2017-Dec-02 10:59N 50°07' W 125°03'0 0.0
2017-Dec-02 10:29N 50°07' W 125°03'0 0.0
2017-Dec-02 09:59N 50°07' W 125°03'0 0.0
2017-Dec-02 09:29N 50°07' W 125°03'0 0.0
2017-Dec-02 08:59N 50°07' W 125°03'0 0.0
2017-Dec-02 08:29N 50°07' W 125°03'0 0.0
2017-Dec-02 07:59N 50°07' W 125°03'0 0.0
2017-Dec-02 07:29N 50°07' W 125°03'0 0.0
2017-Dec-02 06:59N 50°07' W 125°03'0 0.0
2017-Dec-02 06:29N 50°07' W 125°03'0 0.0
2017-Dec-02 05:59N 50°07' W 125°03'0 0.0
2017-Dec-02 05:29N 50°07' W 125°03'0 0.0
2017-Dec-02 04:59N 50°07' W 125°03'0 0.0
2017-Dec-02 04:29N 50°07' W 125°03'0 0.0
2017-Dec-02 03:59N 50°07' W 125°03'0 0.0
2017-Dec-02 03:30N 50°07' W 125°03'4 7.5
2017-Dec-02 03:00N 50°06' W 125°09'2 4.8
2017-Dec-02 02:30N 50°06' W 125°13'510.1
2017-Dec-02 02:00N 50°06' W 125°05'1 2.2
2017-Dec-02 01:31N 50°06' W 125°07'4 7.8
2017-Dec-02 01:01N 50°06' W 125°13'0 0.0
2017-Dec-02 00:30N 50°06' W 125°13'5 9.1
2017-Dec-02 00:01N 50°06' W 125°06'0 0.7
2017-Dec-01 23:30N 50°06' W 125°06'4 8.4
2017-Dec-01 23:00N 50°06' W 125°13'0 0.0
2017-Dec-01 22:30N 50°06' W 125°13'4 8.9
2017-Dec-01 22:00N 50°06' W 125°06'0 0.9
2017-Dec-01 21:30N 50°06' W 125°06'4 8.1
2017-Dec-01 21:00N 50°06' W 125°13'0 0.2
2017-Dec-01 20:31N 50°06' W 125°13'510.9
2017-Dec-01 20:01N 50°06' W 125°04'2 3.3
2017-Dec-01 19:31N 50°06' W 125°07'4 7.6
2017-Dec-01 19:00N 50°06' W 125°13'0 0.0
2017-Dec-01 18:30N 50°06' W 125°13'5 9.9
2017-Dec-01 18:00N 50°06' W 125°05'1 1.4
2017-Dec-01 17:30N 50°06' W 125°06'  
Track history (hours):
 
Tides and Currents Weather Stations Pressure Air Temp Water Temp Dewpoint Dewpoint Depression Visibility Wind Speed Wind Dir Waves Ship Positions

Tachek

Last reported at 2017-Dec-11 17:01 UTC. Time now 2017-Dec-12 15:50 UTC.
Position N 50°06' W 125°13'.

Length 50 m; draft 2.6 m.

Type: Ship. MMSI: 316001271.

Date/timePositionNaut miles runAvg speedWind from/ knotsBaromVisibWave heightAir tempDewpointWater temp
2017-Dec-11 17:01N 50°06' W 125°13'0 0.0
2017-Dec-11 16:31N 50°06' W 125°13'5 9.8
2017-Dec-11 16:00N 50°06' W 125°05'1 2.3
2017-Dec-11 15:31N 50°07' W 125°03'0 0.0
2017-Dec-11 15:00N 50°07' W 125°03'0 0.0
2017-Dec-11 14:31N 50°07' W 125°03'0 0.0
2017-Dec-11 14:01N 50°07' W 125°03'0 0.0
2017-Dec-11 13:31N 50°07' W 125°03'0 0.0
2017-Dec-11 13:01N 50°07' W 125°03'0 0.0
2017-Dec-11 12:31N 50°07' W 125°03'0 0.0
2017-Dec-11 12:01N 50°07' W 125°03'0 0.0
2017-Dec-11 11:31N 50°07' W 125°03'0 0.0
2017-Dec-11 11:01N 50°07' W 125°03'0 0.0
2017-Dec-11 10:31N 50°07' W 125°03'0 0.0
2017-Dec-11 10:01N 50°07' W 125°03'0 0.0
2017-Dec-11 09:31N 50°07' W 125°03'0 0.0
2017-Dec-11 09:01N 50°07' W 125°03'0 0.0
2017-Dec-11 08:31N 50°07' W 125°03'0 0.0
2017-Dec-11 08:01N 50°07' W 125°03'0 0.0
2017-Dec-11 07:31N 50°07' W 125°03'0 0.0
2017-Dec-11 07:01N 50°07' W 125°03'0 0.0
2017-Dec-11 06:30N 50°07' W 125°03'0 0.0
2017-Dec-11 06:01N 50°07' W 125°03'0 0.0
2017-Dec-11 05:31N 50°07' W 125°03'0 0.0
2017-Dec-11 05:01N 50°07' W 125°03'0 0.0
2017-Dec-11 04:31N 50°07' W 125°03'0 0.0
2017-Dec-11 04:01N 50°07' W 125°03'0 0.0
2017-Dec-11 03:30N 50°07' W 125°03'4 8.2
2017-Dec-11 03:00N 50°07' W 125°10'2 4.0
2017-Dec-11 02:31N 50°06' W 125°13'5 9.4
2017-Dec-11 02:01N 50°06' W 125°05'0 0.5
2017-Dec-11 01:31N 50°06' W 125°06'4 8.9
2017-Dec-11 01:01N 50°06' W 125°13'0 0.0
2017-Dec-11 00:31N 50°06' W 125°13'510.6
2017-Dec-11 00:01N 50°06' W 125°04'1 2.5
2017-Dec-10 23:31N 50°06' W 125°06'4 8.1
2017-Dec-10 23:01N 50°06' W 125°13'0 0.0
2017-Dec-10 22:31N 50°06' W 125°13'5 9.1
2017-Dec-10 22:01N 50°06' W 125°06'0 0.3
2017-Dec-10 21:31N 50°06' W 125°06'4 8.9
2017-Dec-10 21:01N 50°06' W 125°13'0 0.0
2017-Dec-10 20:31N 50°06' W 125°13'3 6.0
2017-Dec-10 20:01N 50°07' W 125°08'3 5.4
2017-Dec-10 19:31N 50°06' W 125°04'611.1
2017-Dec-10 19:01N 50°06' W 125°13'0 0.4
2017-Dec-10 18:31N 50°06' W 125°13'2 3.2
2017-Dec-10 18:00N 50°07' W 125°10'5 9.1
2017-Dec-10 17:31N 50°07' W 125°03'0 0.0
2017-Dec-10 17:00N 50°07' W 125°03'0 0.0
2017-Dec-10 16:30N 50°07' W 125°03'0 0.0
2017-Dec-10 16:00N 50°07' W 125°03'0 0.0
2017-Dec-10 15:30N 50°07' W 125°03'0 0.0
2017-Dec-10 15:01N 50°07' W 125°03'0 0.0
2017-Dec-10 14:31N 50°07' W 125°03'0 0.0
2017-Dec-10 14:01N 50°07' W 125°03'0 0.0
2017-Dec-10 13:31N 50°07' W 125°03'0 0.0
2017-Dec-10 13:00N 50°07' W 125°03'0 0.0
2017-Dec-10 12:30N 50°07' W 125°03'0 0.0
2017-Dec-10 12:01N 50°07' W 125°03'0 0.0
2017-Dec-10 11:31N 50°07' W 125°03'0 0.0
2017-Dec-10 11:01N 50°07' W 125°03'0 0.0
2017-Dec-10 10:30N 50°07' W 125°03'0 0.0
2017-Dec-10 10:01N 50°07' W 125°03'0 0.0
2017-Dec-10 09:30N 50°07' W 125°03'0 0.0
2017-Dec-10 09:01N 50°07' W 125°03'0 0.0
2017-Dec-10 08:31N 50°07' W 125°03'0 0.0
2017-Dec-10 08:01N 50°07' W 125°03'0 0.0
2017-Dec-10 07:31N 50°07' W 125°03'0 0.0
2017-Dec-10 07:01N 50°07' W 125°03'0 0.0
2017-Dec-10 06:31N 50°07' W 125°03'0 0.0
2017-Dec-10 06:00N 50°07' W 125°03'0 0.0
2017-Dec-10 05:31N 50°07' W 125°03'0 0.0
2017-Dec-10 05:01N 50°07' W 125°03'0 0.0
2017-Dec-10 04:31N 50°07' W 125°03'0 0.0
2017-Dec-10 04:01N 50°07' W 125°03'0 0.0
2017-Dec-10 03:30N 50°07' W 125°03'4 8.5
2017-Dec-10 03:01N 50°07' W 125°10'2 3.7
2017-Dec-10 02:31N 50°06' W 125°13'5 9.9
2017-Dec-10 02:01N 50°06' W 125°05'2 3.0
2017-Dec-10 01:30N 50°06' W 125°07'3 7.0
2017-Dec-10 01:01N 50°06' W 125°13'0 0.0
2017-Dec-10 00:31N 50°06' W 125°13'510.6
2017-Dec-10 00:00N 50°06' W 125°04'2 3.4
2017-Dec-09 23:30N 50°06' W 125°07'4 7.3
2017-Dec-09 23:01N 50°06' W 125°13'0 0.0
2017-Dec-09 22:31N 50°06' W 125°13'5 9.2
2017-Dec-09 22:01N 50°06' W 125°06'1 1.2
2017-Dec-09 21:30N 50°06' W 125°06'4 7.9
2017-Dec-09 21:00N 50°06' W 125°13'0 0.0
2017-Dec-09 20:30N 50°06' W 125°13'2 4.4
2017-Dec-09 20:00N 50°07' W 125°09'4 7.9
2017-Dec-09 19:31N 50°07' W 125°03'510.7
2017-Dec-09 19:01N 50°07' W 125°12'1 1.6
2017-Dec-09 18:30N 50°06' W 125°13'3 5.2
2017-Dec-09 18:01N 50°07' W 125°09'3 6.9
2017-Dec-09 17:31N 50°06' W 125°03'611.0
2017-Dec-09 17:01N 50°07' W 125°12'1 1.3
2017-Dec-09 16:31N 50°06' W 125°13'5 9.5
2017-Dec-09 16:00N 50°06' W 125°05'1 2.6
2017-Dec-09 15:30N 50°07' W 125°03'0 0.0
2017-Dec-09 15:01N 50°07' W 125°03'0 0.0
2017-Dec-09 14:31N 50°07' W 125°03'0 0.0
2017-Dec-09 14:01N 50°07' W 125°03'0 0.0
2017-Dec-09 13:31N 50°07' W 125°03'0 0.0
2017-Dec-09 13:00N 50°07' W 125°03'0 0.0
2017-Dec-09 12:30N 50°07' W 125°03'0 0.0
2017-Dec-09 12:00N 50°07' W 125°03'0 0.0
2017-Dec-09 11:30N 50°07' W 125°03'0 0.0
2017-Dec-09 11:01N 50°07' W 125°03'0 0.0
2017-Dec-09 10:31N 50°07' W 125°03'0 0.0
2017-Dec-09 10:01N 50°07' W 125°03'0 0.0
2017-Dec-09 09:31N 50°07' W 125°03'0 0.0
2017-Dec-09 09:01N 50°07' W 125°03'0 0.0
2017-Dec-09 08:30N 50°07' W 125°03'0 0.0
2017-Dec-09 08:01N 50°07' W 125°03'0 0.0
2017-Dec-09 07:30N 50°07' W 125°03'0 0.0
2017-Dec-09 07:00N 50°07' W 125°03'0 0.0
2017-Dec-09 06:31N 50°07' W 125°03'0 0.0
2017-Dec-09 06:01N 50°07' W 125°03'0 0.0
2017-Dec-09 05:31N 50°07' W 125°03'0 0.0
2017-Dec-09 05:01N 50°07' W 125°03'0 0.0
2017-Dec-09 04:31N 50°07' W 125°03'0 0.0
2017-Dec-09 04:00N 50°07' W 125°03'0 0.0
2017-Dec-09 03:31N 50°07' W 125°03'5 9.7
2017-Dec-09 03:00N 50°07' W 125°11'1 1.9
2017-Dec-09 02:31N 50°07' W 125°12'611.5
2017-Dec-09 02:01N 50°06' W 125°03'3 6.5
2017-Dec-09 01:30N 50°06' W 125°08'3 5.5
2017-Dec-09 01:01N 50°06' W 125°13'0 0.1
2017-Dec-09 00:30N 50°06' W 125°13'510.5
2017-Dec-09 00:01N 50°06' W 125°05'2 3.0
2017-Dec-08 23:31N 50°06' W 125°07'4 7.4
2017-Dec-08 23:00N 50°06' W 125°13'0 0.0
2017-Dec-08 22:30N 50°06' W 125°13'5 9.9
2017-Dec-08 22:01N 50°06' W 125°05'1 1.7
2017-Dec-08 21:31N 50°06' W 125°06'4 7.5
2017-Dec-08 20:58N 50°06' W 125°13'0 0.0
2017-Dec-08 20:30N 50°06' W 125°13'5 9.7
2017-Dec-08 20:00N 50°06' W 125°05'1 2.0
2017-Dec-08 19:31N 50°07' W 125°07'4 7.7
2017-Dec-08 19:00N 50°06' W 125°13'0 0.7
2017-Dec-08 18:31N 50°07' W 125°12'611.5
2017-Dec-08 18:01N 50°06' W 125°03'2 4.8
2017-Dec-08 17:31N 50°06' W 125°07'4 7.1
2017-Dec-08 17:01N 50°06' W 125°13'0 0.2
2017-Dec-08 16:31N 50°06' W 125°13'610.9
2017-Dec-08 16:00N 50°06' W 125°04'1 1.2
2017-Dec-08 15:30N 50°07' W 125°03'0 0.0
2017-Dec-08 15:00N 50°07' W 125°03'0 0.0
2017-Dec-08 14:30N 50°07' W 125°03'0 0.0
2017-Dec-08 14:00N 50°07' W 125°03'0 0.0
2017-Dec-08 13:30N 50°07' W 125°03'0 0.0
2017-Dec-08 13:00N 50°07' W 125°03'0 0.0
2017-Dec-08 12:30N 50°07' W 125°03'0 0.0
2017-Dec-08 12:00N 50°07' W 125°03'0 0.0
2017-Dec-08 11:27N 50°07' W 125°03'0 0.0
2017-Dec-08 11:00N 50°07' W 125°03'0 0.0
2017-Dec-08 10:30N 50°07' W 125°03'0 0.0
2017-Dec-08 10:00N 50°07' W 125°03'0 0.0
2017-Dec-08 09:30N 50°07' W 125°03'0 0.0
2017-Dec-08 09:00N 50°07' W 125°03'0 0.0
2017-Dec-08 08:27N 50°07' W 125°03'0 0.0
2017-Dec-08 08:00N 50°07' W 125°03'0 0.0
2017-Dec-08 07:30N 50°07' W 125°03'0 0.0
2017-Dec-08 07:00N 50°07' W 125°03'0 0.0
2017-Dec-08 06:30N 50°07' W 125°03'0 0.0
2017-Dec-08 06:00N 50°07' W 125°03'0 0.0
2017-Dec-08 05:30N 50°07' W 125°03'0 0.0
2017-Dec-08 05:00N 50°07' W 125°03'0 0.0
2017-Dec-08 04:30N 50°07' W 125°03'0 0.0
2017-Dec-08 03:57N 50°07' W 125°03'0 0.0
2017-Dec-08 03:30N 50°07' W 125°03'4 7.8
2017-Dec-08 03:01N 50°07' W 125°09'2 4.4
2017-Dec-08 02:31N 50°06' W 125°13'510.3
2017-Dec-08 02:01N 50°06' W 125°05'1 2.8
2017-Dec-08 01:31N 50°06' W 125°07'4 7.5
2017-Dec-08 01:00N 50°06' W 125°13'0 0.8
2017-Dec-08 00:30N 50°07' W 125°12'611.6
2017-Dec-08 00:01N 50°06' W 125°03'3 5.1
2017-Dec-07 23:30N 50°06' W 125°07'3 6.9
2017-Dec-07 23:01N 50°06' W 125°13'0 0.0
2017-Dec-07 22:31N 50°06' W 125°13'5 9.1
2017-Dec-07 22:00N 50°06' W 125°06'1 1.0
2017-Dec-07 21:31N 50°06' W 125°06'4 8.2
2017-Dec-07 21:01N 50°06' W 125°13'3 6.0
2017-Dec-07 20:31N 50°07' W 125°08'3 6.1
2017-Dec-07 20:01N 50°07' W 125°03'5 9.9
2017-Dec-07 19:30N 50°07' W 125°11'1 2.3
2017-Dec-07 19:01N 50°06' W 125°13'0 0.0
2017-Dec-07 18:31N 50°06' W 125°13'510.5
2017-Dec-07 18:00N 50°06' W 125°04'2 3.4
2017-Dec-07 17:31N 50°06' W 125°07'4 7.1
2017-Dec-07 17:00N 50°06' W 125°13'4 8.5
2017-Dec-07 16:30N 50°06' W 125°06'2 3.6
2017-Dec-07 16:00N 50°07' W 125°03'0 0.0
2017-Dec-07 15:30N 50°07' W 125°03'0 0.0
2017-Dec-07 15:00N 50°07' W 125°03'0 0.0
2017-Dec-07 14:30N 50°07' W 125°03'0 0.0
2017-Dec-07 14:00N 50°07' W 125°03'0 0.0
2017-Dec-07 13:30N 50°07' W 125°03'0 0.0
2017-Dec-07 13:00N 50°07' W 125°03'0 0.0
2017-Dec-07 12:27N 50°07' W 125°03'0 0.0
2017-Dec-07 12:00N 50°07' W 125°03'0 0.0
2017-Dec-07 11:30N 50°07' W 125°03'0 0.0
2017-Dec-07 11:00N 50°07' W 125°03'0 0.0
2017-Dec-07 10:30N 50°07' W 125°03'0 0.0
2017-Dec-07 10:00N 50°07' W 125°03'0 0.0
2017-Dec-07 09:30N 50°07' W 125°03'0 0.0
2017-Dec-07 09:00N 50°07' W 125°03'0 0.0
2017-Dec-07 08:30N 50°07' W 125°03'0 0.0
2017-Dec-07 08:00N 50°07' W 125°03'0 0.0
2017-Dec-07 07:30N 50°07' W 125°03'0 0.0
2017-Dec-07 07:00N 50°07' W 125°03'0 0.0
2017-Dec-07 06:30N 50°07' W 125°03'0 0.0
2017-Dec-07 06:00N 50°07' W 125°03'0 0.0
2017-Dec-07 05:30N 50°07' W 125°03'0 0.0
2017-Dec-07 05:00N 50°07' W 125°03'0 0.0
2017-Dec-07 04:30N 50°07' W 125°03'0 0.0
2017-Dec-07 04:00N 50°07' W 125°03'0 0.0
2017-Dec-07 03:30N 50°07' W 125°03'4 8.2
2017-Dec-07 03:00N 50°07' W 125°10'2 3.8
2017-Dec-07 02:31N 50°06' W 125°13'611.2
2017-Dec-07 02:00N 50°06' W 125°04'2 3.2
2017-Dec-07 01:30N 50°06' W 125°06'4 8.1
2017-Dec-07 01:00N 50°06' W 125°13'0 0.4
2017-Dec-07 00:31N 50°06' W 125°13'611.1
2017-Dec-07 00:00N 50°06' W 125°04'2 3.7
2017-Dec-06 23:31N 50°06' W 125°07'4 7.4
2017-Dec-06 23:00N 50°06' W 125°13'0 0.0
2017-Dec-06 22:31N 50°06' W 125°13'510.5
2017-Dec-06 22:00N 50°06' W 125°04'2 3.7
2017-Dec-06 21:30N 50°06' W 125°07'3 6.9
2017-Dec-06 21:00N 50°06' W 125°13'  
2017-Dec-04 10:19N 50°07' W 125°03'0 0.0
2017-Dec-04 09:58N 50°07' W 125°03'0 0.0
2017-Dec-04 09:28N 50°07' W 125°03'0 0.0
2017-Dec-04 08:58N 50°07' W 125°03'0 0.0
2017-Dec-04 08:28N 50°07' W 125°03'0 0.0
2017-Dec-04 07:58N 50°07' W 125°03'0 0.0
2017-Dec-04 07:28N 50°07' W 125°03'0 0.0
2017-Dec-04 06:58N 50°07' W 125°03'0 0.0
2017-Dec-04 06:28N 50°07' W 125°03'0 0.0
2017-Dec-04 05:58N 50°07' W 125°03'0 0.0
2017-Dec-04 05:28N 50°07' W 125°03'0 0.0
2017-Dec-04 04:58N 50°07' W 125°03'0 0.0
2017-Dec-04 04:28N 50°07' W 125°03'0 0.0
2017-Dec-04 03:58N 50°07' W 125°03'0 0.0
2017-Dec-04 03:28N 50°07' W 125°03'4 7.6
2017-Dec-04 03:00N 50°06' W 125°09'3 5.1
2017-Dec-04 02:30N 50°06' W 125°13'4 8.7
2017-Dec-04 02:00N 50°06' W 125°06'0 0.4
2017-Dec-04 01:30N 50°06' W 125°06'4 8.6
2017-Dec-04 01:00N 50°06' W 125°13'0 0.0
2017-Dec-04 00:30N 50°06' W 125°13'510.0
2017-Dec-04 00:00N 50°06' W 125°05'1 3.0
2017-Dec-03 23:30N 50°07' W 125°07'4 7.4
2017-Dec-03 23:00N 50°06' W 125°13'0 0.5
2017-Dec-03 22:30N 50°06' W 125°12'611.9
2017-Dec-03 22:01N 50°07' W 125°03'2 3.9
2017-Dec-03 21:30N 50°06' W 125°06'4 8.2
2017-Dec-03 21:00N 50°06' W 125°13'0 0.0
2017-Dec-03 20:30N 50°06' W 125°13'1 2.4
2017-Dec-03 20:00N 50°07' W 125°11'5 9.8
2017-Dec-03 19:30N 50°07' W 125°03'5 9.2
2017-Dec-03 19:00N 50°06' W 125°10'1 3.0
2017-Dec-03 18:30N 50°06' W 125°13'1 2.6
2017-Dec-03 18:00N 50°07' W 125°11'5 9.6
2017-Dec-03 17:30N 50°07' W 125°03'0 0.0
2017-Dec-03 17:00N 50°07' W 125°03'0 0.0
2017-Dec-03 16:28N 50°07' W 125°03'0 0.0
2017-Dec-03 15:58N 50°07' W 125°03'0 0.0
2017-Dec-03 15:28N 50°07' W 125°03'0 0.0
2017-Dec-03 14:58N 50°07' W 125°03'0 0.0
2017-Dec-03 14:28N 50°07' W 125°03'0 0.0
2017-Dec-03 13:58N 50°07' W 125°03'0 0.0
2017-Dec-03 13:28N 50°07' W 125°03'0 0.0
2017-Dec-03 12:58N 50°07' W 125°03'0 0.0
2017-Dec-03 12:28N 50°07' W 125°03'0 0.0
2017-Dec-03 11:58N 50°07' W 125°03'0 0.0
2017-Dec-03 11:28N 50°07' W 125°03'0 0.0
2017-Dec-03 10:58N 50°07' W 125°03'0 0.0
2017-Dec-03 10:28N 50°07' W 125°03'0 0.0
2017-Dec-03 09:58N 50°07' W 125°03'0 0.0
2017-Dec-03 09:28N 50°07' W 125°03'0 0.0
2017-Dec-03 08:58N 50°07' W 125°03'0 0.0
2017-Dec-03 08:28N 50°07' W 125°03'0 0.0
2017-Dec-03 07:58N 50°07' W 125°03'0 0.0
2017-Dec-03 07:28N 50°07' W 125°03'0 0.0
2017-Dec-03 06:58N 50°07' W 125°03'0 0.0
2017-Dec-03 06:28N 50°07' W 125°03'0 0.0
2017-Dec-03 05:58N 50°07' W 125°03'0 0.0
2017-Dec-03 05:28N 50°07' W 125°03'0 0.0
2017-Dec-03 04:58N 50°07' W 125°03'0 0.0
2017-Dec-03 04:28N 50°07' W 125°03'0 0.0
2017-Dec-03 03:58N 50°07' W 125°03'0 0.0
2017-Dec-03 03:28N 50°07' W 125°03'4 8.2
2017-Dec-03 03:00N 50°07' W 125°09'2 4.7
2017-Dec-03 02:31N 50°06' W 125°13'5 9.8
2017-Dec-03 02:00N 50°06' W 125°05'1 2.3
2017-Dec-03 01:30N 50°06' W 125°07'4 7.5
2017-Dec-03 01:00N 50°06' W 125°13'0 0.0
2017-Dec-03 00:30N 50°06' W 125°13'4 7.9
2017-Dec-03 00:00N 50°06' W 125°07'1 1.4
2017-Dec-02 23:30N 50°06' W 125°05'5 9.2
2017-Dec-02 23:00N 50°06' W 125°13'0 0.0
2017-Dec-02 22:31N 50°06' W 125°13'5 9.8
2017-Dec-02 22:00N 50°06' W 125°05'1 2.6
2017-Dec-02 21:30N 50°06' W 125°07'4 7.3
2017-Dec-02 21:00N 50°06' W 125°13'0 0.0
2017-Dec-02 20:30N 50°06' W 125°13'2 3.1
2017-Dec-02 20:00N 50°07' W 125°10'5 9.1
2017-Dec-02 19:30N 50°07' W 125°03'5 9.0
2017-Dec-02 19:00N 50°06' W 125°10'2 3.1
2017-Dec-02 18:30N 50°06' W 125°13'2 5.0
2017-Dec-02 18:01N 50°07' W 125°09'4 7.1
2017-Dec-02 17:31N 50°07' W 125°03'510.7
2017-Dec-02 17:00N 50°07' W 125°12'1 1.6
2017-Dec-02 16:30N 50°06' W 125°13'4 8.9
2017-Dec-02 16:00N 50°06' W 125°06'2 3.2
2017-Dec-02 15:30N 50°07' W 125°03'0 0.0
2017-Dec-02 14:59N 50°07' W 125°03'0 0.0
2017-Dec-02 14:29N 50°07' W 125°03'0 0.0
2017-Dec-02 13:59N 50°07' W 125°03'0 0.0
2017-Dec-02 13:29N 50°07' W 125°03'0 0.0
2017-Dec-02 12:59N 50°07' W 125°03'0 0.0
2017-Dec-02 12:29N 50°07' W 125°03'0 0.0
2017-Dec-02 11:59N 50°07' W 125°03'0 0.0
2017-Dec-02 11:29N 50°07' W 125°03'0 0.0
2017-Dec-02 10:59N 50°07' W 125°03'0 0.0
2017-Dec-02 10:29N 50°07' W 125°03'0 0.0
2017-Dec-02 09:59N 50°07' W 125°03'0 0.0
2017-Dec-02 09:29N 50°07' W 125°03'0 0.0
2017-Dec-02 08:59N 50°07' W 125°03'0 0.0
2017-Dec-02 08:29N 50°07' W 125°03'0 0.0
2017-Dec-02 07:59N 50°07' W 125°03'0 0.0
2017-Dec-02 07:29N 50°07' W 125°03'0 0.0
2017-Dec-02 06:59N 50°07' W 125°03'0 0.0
2017-Dec-02 06:29N 50°07' W 125°03'0 0.0
2017-Dec-02 05:59N 50°07' W 125°03'0 0.0
2017-Dec-02 05:29N 50°07' W 125°03'0 0.0
2017-Dec-02 04:59N 50°07' W 125°03'0 0.0
2017-Dec-02 04:29N 50°07' W 125°03'0 0.0
2017-Dec-02 03:59N 50°07' W 125°03'0 0.0
2017-Dec-02 03:30N 50°07' W 125°03'4 7.5
2017-Dec-02 03:00N 50°06' W 125°09'2 4.8
2017-Dec-02 02:30N 50°06' W 125°13'510.1
2017-Dec-02 02:00N 50°06' W 125°05'1 2.2
2017-Dec-02 01:31N 50°06' W 125°07'4 7.8
2017-Dec-02 01:01N 50°06' W 125°13'0 0.0
2017-Dec-02 00:30N 50°06' W 125°13'5 9.1
2017-Dec-02 00:01N 50°06' W 125°06'0 0.7
2017-Dec-01 23:30N 50°06' W 125°06'4 8.4
2017-Dec-01 23:00N 50°06' W 125°13'0 0.0
2017-Dec-01 22:30N 50°06' W 125°13'4 8.9
2017-Dec-01 22:00N 50°06' W 125°06'0 0.9
2017-Dec-01 21:30N 50°06' W 125°06'4 8.1
2017-Dec-01 21:00N 50°06' W 125°13'0 0.2
2017-Dec-01 20:31N 50°06' W 125°13'510.9
2017-Dec-01 20:01N 50°06' W 125°04'2 3.3
2017-Dec-01 19:31N 50°06' W 125°07'4 7.6
2017-Dec-01 19:00N 50°06' W 125°13'0 0.0
2017-Dec-01 18:30N 50°06' W 125°13'5 9.9
2017-Dec-01 18:00N 50°06' W 125°05'1 1.4
2017-Dec-01 17:30N 50°06' W 125°06'  

Dump ship's entire track history